createdAt,value
2019-03-23T00:00:52.456Z,102584.06
2019-03-23T00:03:20.187Z,102595.03
2019-03-23T00:05:47.959Z,102594.14
2019-03-23T00:08:15.795Z,102599.41
2019-03-23T00:10:43.542Z,102598.97
2019-03-23T00:13:11.345Z,102598.98
2019-03-23T00:15:39.054Z,102609.91
2019-03-23T00:18:06.775Z,102608.59
2019-03-23T00:25:58.716Z,102610.80
2019-03-23T00:28:26.519Z,102625.23
2019-03-23T00:39:14.310Z,102628.30
2019-03-23T00:41:42.162Z,102629.16
2019-03-23T00:44:10.097Z,102632.66
2019-03-23T00:46:37.936Z,102629.16
2019-03-23T00:49:05.739Z,102624.78
2019-03-23T00:51:33.741Z,102626.51
2019-03-23T00:54:01.583Z,102620.39
2019-03-23T00:56:29.750Z,102615.14
2019-03-23T00:58:57.636Z,102608.14
2019-03-23T01:01:25.497Z,102610.30
2019-03-23T01:03:53.284Z,102608.12
2019-03-23T01:06:21.162Z,102609.44
2019-03-23T01:08:48.943Z,102609.00
2019-03-23T01:11:17.975Z,102609.87
2019-03-23T01:13:45.795Z,102613.37
2019-03-23T01:16:14.180Z,102612.06
2019-03-23T01:18:42.005Z,102613.81
2019-03-23T01:36:50.333Z,102601.11
2019-03-23T01:39:18.582Z,102594.53
2019-03-23T01:41:46.431Z,102600.66
2019-03-23T01:44:14.325Z,102604.98
2019-03-23T01:46:42.255Z,102599.30
2019-03-23T01:49:10.239Z,102593.63
2019-03-23T01:51:38.054Z,102598.40
2019-03-23T01:54:05.894Z,102605.87
2019-03-23T01:56:33.741Z,102594.47
2019-03-23T01:59:01.599Z,102587.05
2019-03-23T02:13:08.486Z,102594.89
2019-03-23T02:15:36.341Z,102596.20
2019-03-23T02:18:04.137Z,102599.27
2019-03-23T02:20:32.011Z,102591.40
2019-03-23T02:22:59.840Z,102593.14
2019-03-23T02:25:27.834Z,102605.84
2019-03-23T02:27:55.635Z,102601.02
2019-03-23T02:30:25.547Z,102617.22
2019-03-23T02:32:53.208Z,102618.06
2019-03-23T02:35:21.096Z,102613.27
2019-03-23T02:37:49.005Z,102620.70
2019-03-23T02:40:16.941Z,102625.09
2019-03-23T02:42:44.749Z,102626.41
2019-03-23T02:45:12.619Z,102621.15
2019-03-23T02:47:40.544Z,102635.59
2019-03-23T02:50:08.582Z,102621.15
2019-03-23T02:52:36.618Z,102639.95
2019-03-23T02:55:05.390Z,102631.20
2019-03-23T02:57:33.254Z,102628.57
2019-03-23T03:41:49.899Z,102603.59
2019-03-23T03:44:17.766Z,102601.88
2019-03-23T03:46:45.620Z,102600.97
2019-03-23T03:49:13.429Z,102606.67
2019-03-23T04:22:05.080Z,102626.33
2019-03-23T04:24:32.927Z,102635.08
2019-03-23T04:27:03.626Z,102639.45
2019-03-23T04:29:31.465Z,102642.08
2019-03-23T04:31:59.282Z,102637.25
2019-03-23T04:34:26.979Z,102633.30
2019-03-23T04:36:54.727Z,102633.73
2019-03-23T04:48:35.683Z,102637.69
2019-03-23T04:51:03.514Z,102650.80
2019-03-23T04:53:31.332Z,102644.23
2019-03-23T04:55:59.168Z,102650.76
2019-03-23T04:58:26.976Z,102646.40
2019-03-23T05:29:16.420Z,102666.11
2019-03-23T05:31:44.423Z,102667.41
2019-03-23T05:34:12.409Z,102656.89
2019-03-23T05:36:40.255Z,102662.14
2019-03-23T05:39:09.812Z,102664.74
2019-03-23T05:51:28.731Z,102687.48
2019-03-23T05:53:56.607Z,102693.14
2019-03-23T05:56:24.510Z,102695.33
2019-03-23T05:58:52.331Z,102702.33
2019-03-23T06:04:02.038Z,102690.95
2019-03-23T06:06:29.897Z,102698.39
2019-03-23T06:08:57.745Z,102693.58
2019-03-23T06:16:49.723Z,102699.28
2019-03-23T06:22:14.140Z,102704.52
2019-03-23T06:24:42.016Z,102703.17
2019-03-23T06:27:09.918Z,102706.27
2019-03-23T06:36:04.672Z,102706.25
2019-03-23T06:38:32.545Z,102718.51
2019-03-23T06:46:56.712Z,102708.46
2019-03-23T06:52:27.019Z,102710.21
2019-03-23T06:54:54.963Z,102724.23
2019-03-23T06:57:22.906Z,102723.34
2019-03-23T07:06:11.689Z,102718.11
2019-03-23T07:08:39.500Z,102721.63
2019-03-23T07:11:07.355Z,102723.36
2019-03-23T07:13:35.241Z,102730.38
2019-03-23T07:16:03.153Z,102729.09
2019-03-23T07:18:31.054Z,102722.98
2019-03-23T07:20:59.009Z,102739.59
2019-03-23T07:23:26.940Z,102735.23
2019-03-23T07:25:54.836Z,102740.92
2019-03-23T07:28:22.751Z,102743.55
2019-03-23T07:30:50.619Z,102735.69
2019-03-23T07:33:18.738Z,102746.20
2019-03-23T07:35:46.732Z,102745.31
2019-03-23T07:38:14.695Z,102755.83
2019-03-23T07:40:42.549Z,102752.34
2019-03-23T07:43:10.392Z,102751.45
2019-03-23T07:45:38.351Z,102754.54
2019-03-23T07:48:06.277Z,102744.02
2019-03-23T07:50:34.291Z,102744.47
2019-03-23T07:53:02.251Z,102753.23
2019-03-23T07:55:30.087Z,102748.89
2019-03-23T07:57:58.054Z,102746.69
2019-03-23T08:00:26.058Z,102744.95
2019-03-23T08:02:54.014Z,102752.39
2019-03-23T08:05:22.014Z,102755.89
2019-03-23T08:07:49.883Z,102757.62
2019-03-23T08:10:27.456Z,102772.95
2019-03-23T08:12:55.354Z,102775.56
2019-03-23T08:15:23.314Z,102773.34
2019-03-23T08:17:51.143Z,102762.00
2019-03-23T08:20:19.059Z,102755.00
2019-03-23T08:22:46.876Z,102761.16
2019-03-23T08:25:14.866Z,102762.93
2019-03-23T08:27:42.721Z,102762.92
2019-03-23T08:30:10.639Z,102771.65
2019-03-23T08:32:38.675Z,102769.05
2019-03-23T08:35:06.632Z,102776.49
2019-03-23T08:37:34.470Z,102776.48
2019-03-23T08:40:02.793Z,102773.87
2019-03-23T08:42:30.849Z,102774.31
2019-03-23T08:44:58.692Z,102772.56
2019-03-23T08:47:27.057Z,102781.31
2019-03-23T08:49:54.963Z,102775.17
2019-03-23T08:52:22.926Z,102771.67
2019-03-23T08:54:50.767Z,102773.41
2019-03-23T08:57:18.703Z,102773.41
2019-03-23T08:59:46.562Z,102772.56
2019-03-23T09:02:14.471Z,102784.40
2019-03-23T09:04:42.340Z,102788.75
2019-03-23T09:07:10.222Z,102794.42
2019-03-23T09:09:38.184Z,102802.75
2019-03-23T09:12:06.000Z,102805.36
2019-03-23T09:14:33.950Z,102809.28
2019-03-23T09:17:01.967Z,102758.33
2019-03-23T09:19:29.851Z,102802.30
2019-03-23T09:21:57.657Z,102801.41
2019-03-23T09:24:25.461Z,102798.80
2019-03-23T09:26:53.321Z,102795.75
2019-03-23T09:29:21.459Z,102797.91
2019-03-23T09:31:49.435Z,102800.53
2019-03-23T09:34:17.477Z,102796.59
2019-03-23T09:36:45.511Z,102803.17
2019-03-23T09:39:13.447Z,102806.70
2019-03-23T09:41:42.399Z,102826.80
2019-03-23T09:44:10.439Z,102832.50
2019-03-23T09:46:38.513Z,102827.25
2019-03-23T09:49:06.531Z,102826.81
2019-03-23T09:51:34.425Z,102829.00
2019-03-23T09:54:02.281Z,102816.75
2019-03-23T09:56:30.138Z,102816.34
2019-03-23T09:58:58.078Z,102823.80
2019-03-23T10:01:26.402Z,102824.23
2019-03-23T10:03:54.340Z,102825.12
2019-03-23T10:06:22.273Z,102822.48
2019-03-23T10:08:50.049Z,102818.54
2019-03-23T10:11:17.978Z,102826.01
2019-03-23T10:13:45.809Z,102831.24
2019-03-23T10:16:13.791Z,102833.87
2019-03-23T10:18:42.647Z,102837.44
2019-03-23T10:21:10.598Z,102836.08
2019-03-23T10:23:38.527Z,102847.86
2019-03-23T10:26:06.427Z,102854.41
2019-03-23T10:28:34.287Z,102853.09
2019-03-23T10:31:02.333Z,102856.20
2019-03-23T10:33:30.447Z,102854.88
2019-03-23T10:35:58.556Z,102847.86
2019-03-23T10:38:26.740Z,102856.19
2019-03-23T10:40:54.622Z,102855.36
2019-03-23T10:43:22.599Z,102861.10
2019-03-23T10:45:50.582Z,102868.51
2019-03-23T10:48:18.505Z,102874.22
2019-03-23T10:50:46.592Z,102877.70
2019-03-23T10:53:22.803Z,102878.92
2019-03-23T10:55:44.332Z,102873.67
2019-03-23T10:58:12.358Z,102875.08
2019-03-23T11:06:04.165Z,102874.28
2019-03-23T11:08:32.021Z,102874.27
2019-03-23T11:10:59.983Z,102873.41
2019-03-23T11:13:27.841Z,102874.78
2019-03-23T11:15:55.743Z,102879.64
2019-03-23T11:18:23.584Z,102886.23
2019-03-23T11:23:27.369Z,102896.31
2019-03-23T11:25:55.172Z,102904.63
2019-03-23T11:28:23.035Z,102901.97
2019-03-23T11:30:50.884Z,102914.68
2019-03-23T11:33:18.892Z,102911.16
2019-03-23T11:35:46.750Z,102906.31
2019-03-23T11:38:14.702Z,102904.59
2019-03-23T11:40:52.202Z,102904.16
2019-03-23T11:43:12.399Z,102908.10
2019-03-23T11:45:40.211Z,102920.38
2019-03-23T11:48:08.074Z,102921.25
2019-03-23T11:50:35.943Z,102925.61
2019-03-23T11:53:03.789Z,102926.92
2019-03-23T11:55:31.657Z,102928.69
2019-03-23T11:57:59.663Z,102932.66
2019-03-23T12:00:27.714Z,102940.96
2019-03-23T12:02:55.663Z,102943.19
2019-03-23T12:05:23.501Z,102944.49
2019-03-23T12:07:51.357Z,102944.51
2019-03-23T12:10:19.245Z,102938.83
2019-03-23T12:12:47.125Z,102943.22
2019-03-23T12:15:15.244Z,102947.60
2019-03-23T12:17:43.163Z,102943.67
2019-03-23T12:20:10.980Z,102946.73
2019-03-23T12:22:38.843Z,102948.06
2019-03-23T12:25:06.722Z,102944.56
2019-03-23T12:27:34.528Z,102945.02
2019-03-23T12:39:00.871Z,102941.23
2019-03-23T12:41:28.749Z,102950.52
2019-03-23T12:43:56.610Z,102960.58
2019-03-23T12:46:24.609Z,102954.02
2019-03-23T12:48:52.434Z,102964.14
2019-03-23T12:51:20.396Z,102954.95
2019-03-23T12:53:48.202Z,102955.39
2019-03-23T12:56:16.094Z,102963.28
2019-03-23T12:58:43.939Z,102947.94
2019-03-23T13:01:11.846Z,102951.44
2019-03-23T13:03:39.545Z,102958.03
2019-03-23T13:06:07.328Z,102957.17
2019-03-23T13:08:35.062Z,102963.33
2019-03-23T13:11:02.835Z,102958.06
2019-03-23T13:13:30.583Z,102964.19
2019-03-23T13:15:58.335Z,102962.43
2019-03-23T13:18:27.314Z,102961.99
2019-03-23T13:20:55.333Z,102961.95
2019-03-23T13:23:23.093Z,102954.05
2019-03-23T13:25:50.834Z,102956.26
2019-03-23T13:28:18.648Z,102954.51
2019-03-23T13:30:46.346Z,102956.75
2019-03-23T13:33:14.248Z,102951.03
2019-03-23T13:35:42.021Z,102958.92
2019-03-23T13:38:09.710Z,102959.38
2019-03-23T13:40:37.578Z,102954.14
2019-03-23T13:43:05.295Z,102958.53
2019-03-23T13:45:42.362Z,102951.92
2019-03-23T13:48:02.750Z,102951.91
2019-03-23T13:50:30.534Z,102964.18
2019-03-23T13:52:58.250Z,102959.81
2019-03-23T13:55:27.549Z,102966.88
2019-03-23T13:57:55.323Z,102966.00
2019-03-23T14:00:23.062Z,102960.78
2019-03-23T14:02:50.857Z,102958.14
2019-03-23T14:05:18.567Z,102962.56
2019-03-23T14:07:46.348Z,102963.91
2019-03-23T14:10:14.097Z,102963.93
2019-03-23T14:12:41.840Z,102968.73
2019-03-23T14:15:09.597Z,102970.08
2019-03-23T14:17:37.325Z,102970.52
2019-03-23T14:20:05.306Z,102962.19
2019-03-23T14:22:33.041Z,102958.64
2019-03-23T14:25:00.774Z,102964.80
2019-03-23T14:27:28.528Z,102963.47
2019-03-23T14:29:56.249Z,102968.28
2019-03-23T14:32:24.109Z,102968.28
2019-03-23T14:34:51.917Z,102959.50
2019-03-23T14:37:19.657Z,102967.83
2019-03-23T14:39:47.409Z,102969.89
2019-03-23T14:42:15.155Z,102973.73
2019-03-23T14:44:43.018Z,102978.02
2019-03-23T14:47:10.770Z,102973.73
2019-03-23T14:52:41.282Z,102989.35
2019-03-23T14:55:09.291Z,102983.69
2019-03-23T14:57:37.272Z,102983.23
2019-03-23T15:00:07.122Z,102980.02
2019-03-23T15:02:35.117Z,102975.11
2019-03-23T15:05:02.947Z,102991.80
2019-03-23T15:07:33.743Z,102981.23
2019-03-23T15:10:01.589Z,102987.94
2019-03-23T15:12:29.583Z,103000.78
2019-03-23T15:14:57.468Z,103005.17
2019-03-23T15:17:25.346Z,103007.33
2019-03-23T15:19:53.214Z,103004.10
2019-03-23T15:22:21.165Z,102993.78
2019-03-23T15:24:49.082Z,103014.37
2019-03-23T15:27:16.984Z,103018.68
2019-03-23T15:32:27.443Z,103016.37
2019-03-23T15:34:55.253Z,103023.91
2019-03-23T15:37:23.134Z,103014.44
2019-03-23T15:39:50.998Z,103019.78
2019-03-23T15:42:24.681Z,103029.30
2019-03-23T15:44:49.064Z,103026.09
2019-03-23T15:47:16.926Z,103016.72
2019-03-23T15:49:44.886Z,103034.31
2019-03-23T15:52:12.828Z,103037.03
2019-03-23T15:54:40.593Z,103033.93
2019-03-23T15:57:08.411Z,103045.34
2019-03-23T15:59:36.265Z,103040.31
2019-03-23T16:02:04.087Z,103050.20
2019-03-23T16:04:31.972Z,103050.30
2019-03-23T16:06:59.933Z,103047.24
2019-03-23T16:09:27.750Z,103052.09
2019-03-23T16:11:55.566Z,103052.12
2019-03-23T16:14:23.399Z,103048.20
2019-03-23T16:16:51.264Z,103053.94
2019-03-23T16:22:06.885Z,103046.03
2019-03-23T16:24:34.821Z,103046.48
2019-03-23T16:27:02.706Z,103042.53
2019-03-23T16:29:30.591Z,103057.91
2019-03-23T16:31:58.483Z,103051.30
2019-03-23T16:34:26.294Z,103052.61
2019-03-23T16:36:54.146Z,103049.99
2019-03-23T16:43:01.966Z,103068.49
2019-03-23T16:45:30.112Z,103063.20
2019-03-23T16:47:58.011Z,103059.66
2019-03-23T16:53:01.939Z,103063.16
2019-03-23T16:55:29.724Z,103068.83
2019-03-23T16:57:57.589Z,103074.09
2019-03-23T17:04:08.202Z,103082.36
2019-03-23T17:06:45.841Z,103076.59
2019-03-23T17:09:05.923Z,103089.31
2019-03-23T17:14:16.909Z,103074.33
2019-03-23T17:16:44.697Z,103073.42
2019-03-23T17:19:12.578Z,103076.45
2019-03-23T17:21:40.581Z,103080.36
2019-03-23T17:24:08.639Z,103075.95
2019-03-23T17:26:39.303Z,103080.76
2019-03-23T17:29:07.352Z,103077.64
2019-03-23T17:31:35.280Z,103074.53
2019-03-23T17:34:03.186Z,103073.61
2019-03-23T17:36:31.026Z,103084.09
2019-03-23T17:38:58.926Z,103087.56
2019-03-23T17:44:03.063Z,103086.19
2019-03-23T17:46:33.115Z,103091.84
2019-03-23T17:49:00.923Z,103094.00
2019-03-23T17:51:28.787Z,103094.42
2019-03-23T17:53:58.785Z,103095.69
2019-03-23T17:56:26.371Z,103090.41
2019-03-23T17:58:54.343Z,103098.75
2019-03-23T18:01:22.290Z,103091.27
2019-03-23T18:03:50.111Z,103095.17
2019-03-23T18:06:18.062Z,103090.34
2019-03-23T18:08:45.893Z,103095.13
2019-03-23T18:11:13.812Z,103095.95
2019-03-23T18:13:41.634Z,103098.13
2019-03-23T18:16:09.507Z,103099.44
2019-03-23T18:18:37.365Z,103100.28
2019-03-23T18:21:05.162Z,103091.08
2019-03-23T18:23:33.181Z,103098.02
2019-03-23T19:10:41.766Z,103147.89
2019-03-23T19:13:09.590Z,103145.66
2019-03-23T19:15:37.369Z,103147.84
2019-03-23T19:18:05.420Z,103153.06
2019-03-23T19:20:33.328Z,103155.69
2019-03-23T19:23:01.320Z,103152.16
2019-03-23T19:25:29.171Z,103148.63
2019-03-23T19:27:57.276Z,103146.87
2019-03-23T19:30:25.158Z,103146.42
2019-03-23T19:32:52.965Z,103149.05
2019-03-23T19:35:20.796Z,103143.77
2019-03-23T19:37:48.779Z,103145.53
2019-03-23T19:43:15.516Z,103155.98
2019-03-23T19:45:43.474Z,103154.66
2019-03-23T19:48:11.397Z,103154.20
2019-03-23T20:12:25.465Z,103157.66
2019-03-23T20:14:53.517Z,103154.98
2019-03-23T20:17:21.581Z,103158.00
2019-03-23T20:28:53.330Z,103172.85
2019-03-23T20:45:31.661Z,103166.22
2019-03-23T20:47:59.490Z,103171.47
2019-03-23T21:04:52.466Z,103164.81
2019-03-23T21:07:20.438Z,103170.97
2019-03-23T21:09:48.347Z,103174.48
2019-03-23T21:12:16.249Z,103178.40
2019-03-23T21:14:44.286Z,103180.10
2019-03-23T21:17:12.348Z,103179.69
